Time;durP1;ratioP1;P1;durP2;ratioP2;P2;SDS_P1;SDS_P2;PMS_P1;PMS_P2;Temp;Humidity;BMP_temperature;BMP_pressure;BME280_temperature;BME280_humidity;BME280_pressure;Samples;Min_cycle;Max_cycle;Signal;HPM_P1;HPM_P2
2022/03/18 00:00:39;625427.00;2.08;1078.14;124823.00;0.42;216.40;;;;;9.90;12.40;;;;;;2259869;61;2290;-89
2022/03/18 00:03:06;668513.00;2.23;1152.68;51284.00;0.17;89.41;;;;;9.90;12.50;;;;;;2259943;61;1011;-89
2022/03/18 00:05:33;236383.00;0.79;408.53;0.00;0.00;0.62;;;;;10.10;10.80;;;;;;2259897;61;1288;-88
2022/03/18 00:08:01;250148.00;0.83;432.21;0.00;0.00;0.62;;;;;9.90;13.10;;;;;;2259969;61;947;-89
2022/03/18 00:10:29;200920.00;0.67;347.51;0.00;0.00;0.62;;;;;10.00;11.90;;;;;;2259844;61;1728;-88
2022/03/18 00:12:56;307064.00;1.02;530.06;0.00;0.00;0.62;;;;;9.80;12.20;;;;;;2259792;61;1413;-87
2022/03/18 00:15:24;143990.00;0.48;249.45;0.00;0.00;0.62;;;;;9.70;14.40;;;;;;2259683;61;1910;-88
2022/03/18 00:17:52;251266.00;0.84;434.13;0.00;0.00;0.62;;;;;9.80;14.20;;;;;;2269637;40;3569;-89
2022/03/18 00:20:19;338673.00;1.13;584.39;0.00;0.00;0.62;;;;;9.80;13.90;;;;;;2263896;61;1110;-88
2022/03/18 00:22:47;252106.00;0.84;435.57;0.00;0.00;0.62;;;;;9.70;13.90;;;;;;2263936;61;932;-87
2022/03/18 00:25:19;203004.00;0.68;351.09;0.00;0.00;0.62;;;;;9.80;14.20;;;;;;2263737;61;1389;-89
2022/03/18 00:30:17;1676432.00;5.59;2979.72;56411.00;0.19;98.27;;;;;10.20;10.20;;;;;;2261538;61;1434;-87
2022/03/18 00:32:46;637372.00;2.12;1098.79;84555.00;0.28;146.90;;;;;10.00;11.70;;;;;;2259880;61;1066;-88
2022/03/18 00:35:13;460238.00;1.53;793.39;0.00;0.00;0.62;;;;;10.10;11.30;;;;;;2260122;61;1912;-87
2022/03/18 00:37:41;562972.00;1.88;970.33;0.00;0.00;0.62;;;;;9.90;11.80;;;;;;2271974;40;3604;-87
2022/03/18 00:40:10;383784.00;1.28;661.93;0.00;0.00;0.62;;;;;9.50;14.90;;;;;;2264454;61;1049;-88
2022/03/18 00:42:39;985476.00;3.28;1706.77;24842.00;0.08;43.65;;;;;9.50;15.10;;;;;;2264321;61;1606;-89
2022/03/18 00:45:07;1494852.00;4.98;2633.44;51363.00;0.17;89.54;;;;;9.60;15.50;;;;;;2264455;61;1292;-89
2022/03/18 00:53:04;449489.00;1.50;774.90;46195.00;0.15;80.61;;;;;10.00;11.30;;;;;;2264650;61;742;-88
2022/03/18 00:55:31;289799.00;0.97;500.38;0.00;0.00;0.62;;;;;9.70;12.00;;;;;;2264155;61;2000;-88
2022/03/18 00:57:59;809959.00;2.70;1398.50;104563.00;0.35;181.45;;;;;9.80;12.80;;;;;;2264574;61;1111;-89
2022/03/18 01:00:26;468350.00;1.56;807.35;7853.00;0.03;14.23;;;;;9.50;14.00;;;;;;2264436;61;2206;-88
2022/03/18 01:02:53;976510.00;3.26;1690.91;11481.00;0.04;20.51;;;;;9.30;15.30;;;;;;2264488;61;1022;-89
2022/03/18 01:05:20;2247064.00;7.49;4144.59;208959.00;0.70;361.34;;;;;9.50;15.60;;;;;;2264482;61;1363;-90
2022/03/18 01:07:47;1701625.00;5.67;3028.58;131711.00;0.44;228.28;;;;;9.40;14.90;;;;;;2264428;61;2134;-87
2022/03/18 01:10:14;684766.00;2.28;1180.83;79677.00;0.27;138.48;;;;;9.10;15.70;;;;;;2264350;61;1658;-88
2022/03/18 01:12:41;553775.00;1.85;954.47;108349.00;0.36;187.98;;;;;8.90;17.10;;;;;;2264399;61;1636;-88
2022/03/18 01:15:10;132548.00;0.44;229.72;0.00;0.00;0.62;;;;;9.00;18.50;;;;;;2264330;61;1984;-89
2022/03/18 01:17:37;307921.00;1.03;531.54;0.00;0.00;0.62;;;;;9.40;17.10;;;;;;2271951;40;3601;-86
2022/03/18 01:20:05;174180.00;0.58;301.47;0.00;0.00;0.62;;;;;9.60;14.70;;;;;;2271163;56;3751;-88
2022/03/18 01:22:32;267370.00;0.89;461.82;0.00;0.00;0.62;;;;;9.60;13.00;;;;;;2264460;61;1115;-88
2022/03/18 01:25:00;368306.00;1.23;635.33;0.00;0.00;0.62;;;;;9.20;15.70;;;;;;2264303;61;1398;-87
2022/03/18 01:27:27;720555.00;2.40;1242.90;52315.00;0.17;91.19;;;;;9.30;16.10;;;;;;2264425;61;975;-88
2022/03/18 01:29:54;448576.00;1.50;773.33;10225.00;0.03;18.34;;;;;9.30;16.00;;;;;;2264352;61;1504;-89
2022/03/18 01:32:23;1503180.00;5.01;2649.11;124405.00;0.41;215.68;;;;;9.70;16.00;;;;;;2264282;61;1051;-86
2022/03/18 01:34:50;2218699.00;7.40;4083.48;169588.00;0.57;293.56;;;;;9.60;13.30;;;;;;2264319;61;1923;-88
2022/03/18 01:37:16;1121822.00;3.74;1949.49;129284.00;0.43;224.09;;;;;9.40;14.20;;;;;;2264392;61;1596;-88
2022/03/18 01:39:44;606763.00;2.02;1045.90;88486.00;0.29;153.69;;;;;9.50;14.70;;;;;;2264298;61;913;-88
2022/03/18 01:42:11;212746.00;0.71;367.86;0.00;0.00;0.62;;;;;9.40;14.10;;;;;;2264174;61;1505;-87
2022/03/18 01:44:42;381033.00;1.27;657.20;0.00;0.00;0.62;;;;;9.20;16.30;;;;;;2264286;61;1620;-88
2022/03/18 01:47:10;1624731.00;5.42;2880.10;160088.00;0.53;277.19;;;;;9.40;15.20;;;;;;2264139;61;1072;-89
2022/03/18 01:49:40;554255.00;1.85;955.29;93441.00;0.31;162.25;;;;;9.30;15.70;;;;;;2264373;61;1000;-89
2022/03/18 01:52:10;171375.00;0.57;296.64;0.00;0.00;0.62;;;;;9.40;13.20;;;;;;2264965;56;3730;-87
2022/03/18 01:54:47;135429.00;0.45;234.69;0.00;0.00;0.62;;;;;9.10;15.00;;;;;;2264184;61;2178;-87
2022/03/18 01:57:17;235284.00;0.78;406.64;75.00;0.00;0.75;;;;;9.10;15.20;;;;;;2264159;61;2011;-87
2022/03/18 02:02:14;591720.00;1.97;1019.93;0.00;0.00;0.62;;;;;9.40;13.80;;;;;;2261927;61;1412;-87
2022/03/18 02:04:43;365161.00;1.22;629.92;0.00;0.00;0.62;;;;;9.60;13.10;;;;;;2270887;40;3598;-87
2022/03/18 02:07:11;1510208.00;5.03;2662.34;88010.00;0.29;152.87;;;;;9.20;13.10;;;;;;2268205;61;1054;-88
2022/03/18 02:09:40;563536.00;1.88;971.30;1554.00;0.01;3.31;;;;;9.00;14.60;;;;;;2272856;55;3772;-85
2022/03/18 02:12:09;356350.00;1.19;614.78;0.00;0.00;0.62;;;;;8.90;17.00;;;;;;2264229;61;1416;-88
2022/03/18 02:14:38;327373.00;1.09;564.97;0.00;0.00;0.62;;;;;8.90;16.40;;;;;;2264214;61;1337;-88
2022/03/18 02:17:07;409516.00;1.37;706.16;0.00;0.00;0.62;;;;;8.80;16.70;;;;;;2264144;61;2002;-88
2022/03/18 02:19:37;315134.00;1.05;543.93;0.00;0.00;0.62;;;;;9.10;16.90;;;;;;2264263;61;982;-86
2022/03/18 02:22:11;1429622.00;4.77;2511.38;63132.00;0.21;109.89;;;;;9.10;15.00;;;;;;2263900;61;1192;-87
2022/03/18 02:24:41;335491.00;1.12;578.92;84935.00;0.28;147.56;;;;;9.30;15.00;;;;;;2263976;61;1462;-88
2022/03/18 02:27:08;375071.00;1.25;646.95;0.00;0.00;0.62;;;;;9.30;15.00;;;;;;2264018;61;1071;-87
2022/03/18 02:29:35;155711.00;0.52;269.65;0.00;0.00;0.62;;;;;9.20;14.70;;;;;;2276688;55;3764;-88
2022/03/18 02:32:04;1245514.00;4.15;2172.73;29361.00;0.10;51.48;;;;;9.20;15.00;;;;;;2283287;40;3616;-89
2022/03/18 02:34:32;119429152.00;398.10;69004856.00;164762.00;0.55;285.24;;;;;8.90;15.60;;;;;;2267966;61;1651;-87
2022/03/18 02:36:59;178848.00;0.60;309.51;0.00;0.00;0.62;;;;;9.00;16.30;;;;;;2272985;40;3449;-87
2022/03/18 02:39:27;409164.00;1.36;705.56;0.00;0.00;0.62;;;;;9.00;15.00;;;;;;2264170;61;1068;-89
2022/03/18 02:44:26;2414631.00;8.05;4513.37;270980.00;0.90;468.03;;;;;9.00;13.00;;;;;;2261589;61;1354;-87
2022/03/18 02:49:24;1235065.00;4.12;2153.75;107862.00;0.36;187.14;;;;;9.00;15.50;;;;;;2261491;61;1414;-88
2022/03/18 02:51:51;376882.00;1.26;650.07;92718.00;0.31;161.00;;;;;9.00;15.20;;;;;;2259921;61;1086;-89
2022/03/18 02:54:18;128423.00;0.43;222.61;0.00;0.00;0.62;;;;;9.20;12.00;;;;;;2260107;61;1615;-89
2022/03/18 02:56:45;197776.00;0.66;342.10;0.00;0.00;0.62;;;;;9.40;12.90;;;;;;2255795;61;1923;-89
2022/03/18 02:59:13;365148.00;1.22;629.90;0.00;0.00;0.62;;;;;9.40;12.20;;;;;;2255921;61;1472;-88
2022/03/18 03:01:41;561297.00;1.87;967.44;297.00;0.00;1.13;;;;;9.20;11.70;;;;;;2267481;55;3768;-89
2022/03/18 03:04:08;2311088.00;7.70;4283.89;143025.00;0.48;247.79;;;;;9.30;12.20;;;;;;2259595;61;1244;-86
2022/03/18 03:09:19;1273651.00;4.25;2223.96;183564.00;0.61;317.63;;;;;9.40;12.10;;;;;;2260017;61;620;-87
2022/03/18 03:11:46;117228808.00;390.76;65257428.00;86005.00;0.29;149.41;;;;;9.10;13.20;;;;;;2259909;61;1014;-87
2022/03/18 03:14:13;116949.00;0.39;202.82;0.00;0.00;0.62;;;;;9.40;11.90;;;;;;2259974;61;1540;-89
2022/03/18 03:16:42;282126.00;0.94;487.19;0.00;0.00;0.62;;;;;9.60;10.10;;;;;;2259634;61;1918;-89
2022/03/18 03:19:09;277216.00;0.92;478.75;0.00;0.00;0.62;;;;;9.70;10.70;;;;;;2259877;61;1755;-87
2022/03/18 03:21:37;410307.00;1.37;707.52;0.00;0.00;0.62;;;;;9.40;10.40;;;;;;2271518;40;3643;-88
2022/03/18 03:24:04;1256614.00;4.19;2192.92;113105.00;0.38;196.19;;;;;9.00;11.40;;;;;;2263970;61;996;-89
2022/03/18 03:26:31;1010452.00;3.37;1750.99;109054.00;0.36;189.20;;;;;8.90;12.50;;;;;;2263818;61;1401;-87
2022/03/18 03:28:58;156560.00;0.52;271.11;0.00;0.00;0.62;;;;;9.20;12.90;;;;;;2264024;61;983;-88
2022/03/18 03:31:26;542633.00;1.81;935.26;16831.00;0.06;29.78;;;;;9.30;10.70;;;;;;2264020;61;1125;-88
2022/03/18 03:33:54;569219.00;1.90;981.10;0.00;0.00;0.62;;;;;9.50;10.50;;;;;;2263912;61;1017;-89
2022/03/18 03:36:23;2091574.00;6.97;3814.08;146736.00;0.49;254.18;;;;;9.60;10.70;;;;;;2263699;55;3761;-88
2022/03/18 03:38:50;973541.00;3.25;1685.67;102977.00;0.34;178.71;;;;;9.30;10.40;;;;;;2284297;40;3579;-88
2022/03/18 03:41:20;861197.00;2.87;1488.07;49227.00;0.16;85.85;;;;;8.80;13.10;;;;;;2272066;41;3614;-87
2022/03/18 03:43:48;851700.00;2.84;1471.44;27655.00;0.09;48.52;;;;;9.20;13.60;;;;;;2263650;61;1796;-90
2022/03/18 03:51:13;1382587.00;4.61;2424.07;31651.00;0.11;55.44;;;;;9.30;11.60;;;;;;2261230;61;1320;-88
2022/03/18 03:53:40;1487194.00;4.96;2619.05;133203.00;0.44;230.85;;;;;9.20;12.20;;;;;;2259932;61;1060;-88
2022/03/18 03:56:07;898535.00;3.00;1553.55;112546.00;0.38;195.22;;;;;9.50;11.50;;;;;;2259622;61;1932;-89
2022/03/18 04:01:04;714558.00;2.38;1232.49;87256.00;0.29;151.57;;;;;9.10;11.60;;;;;;2261961;61;1312;-87
2022/03/18 04:03:32;341515.00;1.14;589.28;0.00;0.00;0.62;;;;;8.90;13.90;;;;;;2259717;61;975;-88
2022/03/18 04:16:05;1081953.00;3.61;1878.18;0.00;0.00;0.62;;;;;8.90;14.20;;;;;;2261530;61;1916;-89
2022/03/18 04:18:32;232405.00;0.77;401.69;0.00;0.00;0.62;;;;;9.20;12.50;;;;;;2283002;40;3690;-87
2022/03/18 04:20:59;496482.00;1.65;855.77;0.00;0.00;0.62;;;;;9.30;11.00;;;;;;2270937;55;3756;-88
2022/03/18 04:23:26;1152015.00;3.84;2003.70;0.00;0.00;0.62;;;;;9.10;10.20;;;;;;2263590;61;1479;-88
2022/03/18 04:28:21;308500.00;1.03;532.53;0.00;0.00;0.62;;;;;9.30;10.10;;;;;;2261321;61;1390;-88
2022/03/18 04:30:48;849658.00;2.83;1467.87;99131.00;0.33;172.07;;;;;9.40;9.30;;;;;;2267689;55;3793;-88
2022/03/18 04:35:46;719332.00;2.40;1240.78;81903.00;0.27;142.32;;;;;9.40;8.60;;;;;;2261255;61;1994;-89
2022/03/18 04:43:11;916519.00;3.06;1585.15;0.00;0.00;0.62;;;;;8.90;10.60;;;;;;2277417;41;3460;-89
2022/03/18 04:45:38;699645.00;2.33;1206.62;0.00;0.00;0.62;;;;;8.90;12.20;;;;;;2279428;41;3646;-89
2022/03/18 04:50:35;553081.00;1.84;953.27;0.00;0.00;0.62;;;;;9.20;9.80;;;;;;2261406;61;1373;-89
2022/03/18 04:53:03;287348.00;0.96;496.17;0.00;0.00;0.62;;;;;9.10;10.20;;;;;;2264594;55;3721;-88
2022/03/18 04:57:59;2112527.00;7.04;3858.00;97439.00;0.32;169.15;;;;;9.00;10.20;;;;;;2261092;61;2011;-88
2022/03/18 05:02:58;576598.00;1.92;993.83;0.00;0.00;0.62;;;;;8.70;11.50;;;;;;2270460;40;3570;-88
2022/03/18 05:10:33;1565851.00;5.22;2767.65;30991.00;0.10;54.30;;;;;8.60;13.30;;;;;;2261347;61;1429;-89
2022/03/18 05:13:00;635202.00;2.12;1095.04;62963.00;0.21;109.60;;;;;8.80;13.30;;;;;;2259472;61;1001;-87
2022/03/18 05:15:27;334160.00;1.11;576.64;0.00;0.00;0.62;;;;;9.00;11.10;;;;;;2259352;61;1624;-88
2022/03/18 05:17:55;1346331.00;4.49;2357.15;58211.00;0.19;101.38;;;;;9.10;9.20;;;;;;2321926;40;3567;-90
2022/03/18 05:37:53;1495432.00;4.98;2634.53;30305.00;0.10;53.11;;;;;9.10;7.90;;;;;;2277814;55;3567;-86
2022/03/18 05:40:21;1254246.00;4.18;2188.61;139520.00;0.47;241.74;;;;;8.80;10.00;;;;;;2280407;55;3748;-88
2022/03/18 05:42:48;421424.00;1.40;726.64;0.00;0.00;0.62;;;;;8.60;10.10;;;;;;2269752;55;3829;-87
2022/03/18 05:47:49;936409.00;3.12;1620.16;75510.00;0.25;131.28;;;;;8.60;11.20;;;;;;2281577;40;3519;-88
2022/03/18 05:50:16;529259.00;1.76;912.22;0.00;0.00;0.62;;;;;8.80;11.80;;;;;;2264237;61;1685;-88
2022/03/18 05:52:45;2028356.00;6.76;3682.71;273627.00;0.91;472.58;;;;;9.00;9.80;;;;;;2264264;61;1100;-88
2022/03/18 05:57:43;1080430.00;3.60;1875.46;84696.00;0.28;147.15;;;;;9.30;8.50;;;;;;2271302;40;3399;-87
2022/03/18 06:00:14;74959.00;0.25;130.33;0.00;0.00;0.62;;;;;9.40;7.50;;;;;;2264016;61;1056;-88
2022/03/18 06:02:42;291384.00;0.97;503.11;0.00;0.00;0.62;;;;;9.20;7.40;;;;;;2264049;61;1775;-88
2022/03/18 06:05:10;497256.00;1.66;857.10;20361.00;0.07;35.90;;;;;9.00;8.70;;;;;;2263939;61;1366;-87
2022/03/18 06:07:38;538697.00;1.80;928.48;31879.00;0.11;55.84;;;;;9.10;8.60;;;;;;2264142;61;926;-88
2022/03/18 06:12:52;329234.00;1.10;568.17;0.00;0.00;0.62;;;;;9.30;7.20;;;;;;2264220;61;634;-88
2022/03/18 06:15:19;176689.00;0.59;305.79;0.00;0.00;0.62;;;;;9.30;7.60;;;;;;2264078;61;1624;-89
2022/03/18 06:17:46;1795234.00;5.98;3212.00;151772.00;0.51;262.86;;;;;9.20;7.40;;;;;;2264002;61;1997;-88
2022/03/18 06:20:13;879030.00;2.93;1519.32;0.00;0.00;0.62;;;;;9.20;7.70;;;;;;2271795;41;3642;-88
2022/03/18 06:25:08;875309.00;2.92;1512.80;0.00;0.00;0.62;;;;;9.00;7.80;;;;;;2261585;61;1450;-86
2022/03/18 06:27:35;368305.00;1.23;635.32;0.00;0.00;0.62;;;;;9.10;8.50;;;;;;2260102;61;1558;-87
2022/03/18 06:30:05;512541.00;1.71;883.42;26431.00;0.09;46.40;;;;;9.30;7.90;;;;;;2260031;61;1663;-88
2022/03/18 06:32:32;464105.00;1.55;800.05;0.00;0.00;0.62;;;;;9.30;7.30;;;;;;2264341;40;3615;-87
2022/03/18 06:34:59;505140.00;1.68;870.67;848.00;0.00;2.09;;;;;9.30;7.00;;;;;;2263980;61;1614;-87
2022/03/18 06:37:26;2063008.00;6.88;3754.51;122679.00;0.41;212.70;;;;;9.10;8.00;;;;;;2270963;40;3642;-87
2022/03/18 06:39:53;1860707.00;6.20;3342.12;128859.00;0.43;223.36;;;;;8.90;7.00;;;;;;2270985;56;3764;-86
2022/03/18 06:42:20;1390073.00;4.63;2437.93;181827.00;0.61;314.64;;;;;8.70;9.90;;;;;;2264039;61;1012;-87
2022/03/18 06:44:47;960796.00;3.20;1663.16;94131.00;0.31;163.44;;;;;8.90;8.60;;;;;;2271076;56;3785;-86
2022/03/18 06:47:15;413395.00;1.38;712.83;104833.00;0.35;181.91;;;;;8.80;8.00;;;;;;2266230;40;3617;-88
2022/03/18 06:49:42;316500.00;1.05;546.28;0.00;0.00;0.62;;;;;8.60;9.50;;;;;;2267950;55;3808;-88
2022/03/18 06:54:39;528950.00;1.76;911.68;0.00;0.00;0.62;;;;;8.80;7.90;;;;;;2262074;61;1510;-87
2022/03/18 06:57:06;544748.00;1.82;938.91;0.00;0.00;0.62;;;;;8.90;9.20;;;;;;2259957;61;1912;-89
2022/03/18 07:02:07;1170942.00;3.90;2037.77;0.00;0.00;0.62;;;;;8.40;10.30;;;;;;2282339;41;3506;-88
2022/03/18 07:07:09;661687.00;2.21;1140.86;0.00;0.00;0.62;;;;;8.50;11.60;;;;;;2261520;61;1370;-88
2022/03/18 07:09:37;358754.00;1.20;618.91;0.00;0.00;0.62;;;;;8.60;10.90;;;;;;2259857;61;1235;-87
2022/03/18 07:12:04;488895.00;1.63;842.71;0.00;0.00;0.62;;;;;8.90;8.70;;;;;;2267421;55;3781;-88
2022/03/18 07:14:31;262068.00;0.87;452.70;0.00;0.00;0.62;;;;;9.10;7.90;;;;;;2263655;61;2172;-89
2022/03/18 07:19:32;1785262.00;5.95;3192.32;120555.00;0.40;209.04;;;;;9.10;7.00;;;;;;2257787;61;1370;-88
2022/03/18 07:21:59;652847.00;2.18;1125.56;98868.00;0.33;171.62;;;;;9.20;7.20;;;;;;2255790;61;1579;-86
2022/03/18 07:24:27;337957.00;1.13;583.16;0.00;0.00;0.62;;;;;9.30;6.40;;;;;;2261143;55;3776;-86
2022/03/18 07:26:54;564256.00;1.88;972.54;0.00;0.00;0.62;;;;;9.10;6.60;;;;;;2285424;55;3784;-88
2022/03/18 07:29:21;1765593.00;5.89;3153.59;69243.00;0.23;120.45;;;;;8.70;8.40;;;;;;2263812;61;930;-88
2022/03/18 07:31:51;2262878.00;7.54;4178.81;157604.00;0.53;272.91;;;;;8.70;9.00;;;;;;2263928;61;1620;-86
2022/03/18 07:36:47;799262.00;2.66;1379.84;94089.00;0.31;163.37;;;;;9.00;5.60;;;;;;2265599;61;1954;-88
2022/03/18 07:41:45;760745.00;2.54;1312.75;8611.00;0.03;15.54;;;;;9.00;7.50;;;;;;2261770;61;1409;-87
2022/03/18 07:44:11;330216.00;1.10;569.86;0.00;0.00;0.62;;;;;9.30;7.50;;;;;;2266133;55;3744;-88
2022/03/18 07:49:11;2356174.00;7.85;4383.16;121317.00;0.40;210.35;;;;;9.50;4.00;;;;;;2296649;40;3503;-85
2022/03/18 07:59:06;1262527.00;4.21;2203.69;0.00;0.00;0.62;;;;;9.00;5.90;;;;;;2271779;55;3645;-88
2022/03/18 08:01:35;458106.00;1.53;789.73;0.00;0.00;0.62;;;;;9.00;5.00;;;;;;2267754;61;1622;-89
2022/03/18 08:09:05;3222776.00;10.74;6511.94;243334.00;0.81;420.49;;;;;9.00;5.20;;;;;;2261830;61;1678;-87
2022/03/18 08:16:32;1402177.00;4.67;2460.36;0.00;0.00;0.62;;;;;8.90;6.00;;;;;;2262046;61;1973;-88
2022/03/18 08:18:59;429113.00;1.43;739.86;0.00;0.00;0.62;;;;;9.10;5.00;;;;;;2259630;61;1613;-87
2022/03/18 08:21:26;1000439.00;3.33;1733.25;13615.00;0.05;24.21;;;;;9.00;5.40;;;;;;2262197;40;3574;-84
2022/03/18 08:23:53;1809321.00;6.03;3239.87;144191.00;0.48;249.80;;;;;8.80;4.30;;;;;;2264477;55;3738;-87
2022/03/18 08:26:20;1066959.00;3.56;1851.43;82643.00;0.28;143.60;;;;;8.90;4.30;;;;;;2263381;61;1535;-86
2022/03/18 08:33:51;119847472.00;399.49;69733176.00;0.00;0.00;0.62;;;;;9.00;3.60;;;;;;2261687;61;1335;-87
2022/03/18 08:36:18;403759.00;1.35;696.27;5024.00;0.02;9.33;;;;;8.80;4.30;;;;;;2265105;40;3664;-86
2022/03/18 08:38:45;671594.00;2.24;1158.01;0.00;0.00;0.62;;;;;8.80;3.70;;;;;;2263772;61;1920;-87
2022/03/18 08:43:42;1278375.00;4.26;2232.58;0.00;0.00;0.62;;;;;9.10;2.70;;;;;;2261081;61;1353;-87
2022/03/18 08:46:09;477667.00;1.59;823.38;0.00;0.00;0.62;;;;;9.30;1.70;;;;;;2259266;61;2071;-89
2022/03/18 08:53:40;1061602.00;3.54;1841.89;0.00;0.00;0.62;;;;;9.20;2.40;;;;;;1782932;41;3465;-87
2022/03/18 08:56:07;603028.00;2.01;1039.45;0.00;0.00;0.62;;;;;9.30;2.70;;;;;;2263846;61;1349;-88
2022/03/18 08:58:34;199373.00;0.66;344.84;0.00;0.00;0.62;;;;;9.60;1.00;;;;;;2264289;61;1932;-90
2022/03/18 09:01:02;377388.00;1.26;650.94;0.00;0.00;0.62;;;;;9.40;1.00;;;;;;2278819;40;3615;-88
2022/03/18 09:03:29;118064160.00;393.55;66663704.00;0.00;0.00;0.62;;;;;9.60;1.00;;;;;;2271570;55;3764;-86
2022/03/18 09:08:25;1021236.00;3.40;1770.12;0.00;0.00;0.62;;;;;9.60;1.00;;;;;;2262105;61;1409;-87
2022/03/18 09:10:53;745563.00;2.49;1286.34;0.00;0.00;0.62;;;;;9.50;1.00;;;;;;2276051;55;3829;-84
2022/03/18 09:13:21;1618485.00;5.39;2868.12;93156.00;0.31;161.76;;;;;9.70;1.00;;;;;;2264146;61;1648;-86
2022/03/18 09:15:48;1654096.00;5.51;2936.58;52845.00;0.18;92.11;;;;;9.90;1.00;;;;;;2271942;40;3604;-87
2022/03/18 09:23:18;2542983.00;8.48;4805.39;89987.00;0.30;156.29;;;;;9.80;1.00;;;;;;2262072;61;1375;-86
2022/03/18 09:25:45;1102481.00;3.67;1914.86;45096.00;0.15;78.70;;;;;10.00;1.00;;;;;;2265292;55;3762;-87
2022/03/18 09:28:14;788936.00;2.63;1361.83;87143.00;0.29;151.37;;;;;9.90;1.00;;;;;;2270237;55;3731;-87
2022/03/18 09:33:10;869305.00;2.90;1502.27;0.00;0.00;0.62;;;;;10.10;1.00;;;;;;2262133;61;1421;-88
2022/03/18 09:40:43;1021568.00;3.41;1770.71;0.00;0.00;0.62;;;;;10.00;1.00;;;;;;2273343;55;3656;-86
2022/03/18 09:45:41;899494.00;3.00;1555.23;0.00;0.00;0.62;;;;;9.80;1.00;;;;;;2265850;55;3634;-87
2022/03/18 09:48:10;435153.00;1.45;750.25;0.00;0.00;0.62;;;;;9.90;1.00;;;;;;2264169;61;1468;-88
2022/03/18 09:50:38;312269.00;1.04;539.01;28897.00;0.10;50.67;;;;;9.90;1.00;;;;;;2269467;40;3653;-88
2022/03/18 09:53:06;355345.00;1.18;613.05;5854.00;0.02;10.77;;;;;9.80;1.00;;;;;;2264115;61;1042;-88
2022/03/18 10:05:45;972808.00;3.24;1684.37;0.00;0.00;0.62;;;;;10.60;1.00;;;;;;2296036;56;3606;-86
2022/03/18 10:08:12;431268.00;1.44;743.57;0.00;0.00;0.62;;;;;10.40;1.00;;;;;;2263927;61;1003;-88
2022/03/18 10:10:45;550669.00;1.84;949.11;0.00;0.00;0.62;;;;;10.50;1.00;;;;;;2264082;61;979;-87
2022/03/18 10:13:12;366365.00;1.22;631.99;57092.00;0.19;99.45;;;;;10.50;1.00;;;;;;2264126;61;1676;-87
2022/03/18 10:15:40;1257800.00;4.19;2195.08;124183.00;0.41;215.30;;;;;10.60;1.00;;;;;;2264094;61;1452;-86
2022/03/18 10:18:12;1150885.00;3.84;2001.67;87984.00;0.29;152.83;;;;;10.50;1.00;;;;;;2264275;61;1915;-87
2022/03/18 10:20:42;1567700.00;5.23;2771.17;139734.00;0.47;242.11;;;;;10.40;1.00;;;;;;2264357;61;1111;-86
2022/03/18 10:23:25;1521449.00;5.07;2683.55;57081.00;0.19;99.43;;;;;10.60;1.00;;;;;;2264140;61;1099;-86
2022/03/18 10:25:54;1294693.00;4.32;2262.40;101425.00;0.34;176.03;;;;;10.80;1.00;;;;;;2263873;61;1388;-86
2022/03/18 10:28:40;1286808.00;4.29;2247.98;77915.00;0.26;135.44;;;;;10.50;1.00;;;;;;2264236;61;1160;-88
2022/03/18 10:31:11;656196.00;2.19;1131.36;60910.00;0.20;106.05;;;;;10.70;1.00;;;;;;2264157;61;1628;-87
2022/03/18 10:39:28;455569.00;1.52;785.36;6743.00;0.02;12.31;;;;;10.70;1.00;;;;;;2264368;61;1942;-87
2022/03/18 10:41:56;1169678.00;3.90;2035.49;170161.00;0.57;294.54;;;;;10.80;1.00;;;;;;2264342;61;1183;-88
2022/03/18 10:44:23;1253578.00;4.18;2187.40;95536.00;0.32;165.87;;;;;10.90;1.00;;;;;;2264273;61;1417;-86
2022/03/18 10:46:53;1037761.00;3.46;1799.47;42766.00;0.14;74.67;;;;;10.90;1.00;;;;;;2266146;55;3741;-86
2022/03/18 10:49:22;721837.00;2.41;1245.13;0.00;0.00;0.62;;;;;10.80;1.00;;;;;;2264298;61;991;-88
2022/03/18 10:51:51;613033.00;2.04;1056.73;95097.00;0.32;165.11;;;;;10.90;1.00;;;;;;2264273;61;1547;-88
2022/03/18 10:54:24;383065.00;1.28;660.69;13340.00;0.04;23.74;;;;;11.10;1.00;;;;;;2264228;61;1012;-87
2022/03/18 10:56:57;208641.00;0.70;360.80;0.00;0.00;0.62;;;;;11.10;1.00;;;;;;2260175;61;2094;-87
2022/03/18 11:01:54;426479.00;1.42;735.33;0.00;0.00;0.62;;;;;11.90;1.00;;;;;;2261463;61;1333;-87
2022/03/18 11:04:23;261574.00;0.87;451.86;0.00;0.00;0.62;;;;;12.00;1.00;;;;;;2260280;61;1024;-88
2022/03/18 11:12:27;397762.00;1.33;685.96;0.00;0.00;0.62;;;;;11.40;1.00;;;;;;2256205;61;651;-86
2022/03/18 11:14:56;230183.00;0.77;397.86;0.00;0.00;0.62;;;;;11.30;1.00;;;;;;2256229;61;1388;-87
2022/03/18 11:17:24;291991.00;0.97;504.15;0.00;0.00;0.62;;;;;11.00;1.00;;;;;;2256143;61;1997;-86
2022/03/18 11:19:53;186593.00;0.62;322.84;0.00;0.00;0.62;;;;;11.20;1.00;;;;;;2256090;61;1116;-86
2022/03/18 11:22:23;391389.00;1.30;675.00;0.00;0.00;0.62;;;;;11.50;1.00;;;;;;2256098;61;2240;-85
2022/03/18 11:27:20;512017.00;1.71;882.52;0.00;0.00;0.62;;;;;11.60;1.00;;;;;;2266032;61;1405;-88
2022/03/18 11:29:47;290184.00;0.97;501.05;0.00;0.00;0.62;;;;;11.50;1.00;;;;;;2263950;61;984;-87
2022/03/18 11:32:21;56497.00;0.19;98.42;0.00;0.00;0.62;;;;;11.60;1.00;;;;;;2263911;61;1541;-87
2022/03/18 11:34:51;690011.00;2.30;1189.92;78289.00;0.26;136.08;;;;;11.40;1.00;;;;;;2268473;55;3745;-86
2022/03/18 11:37:20;78461.00;0.26;136.38;0.00;0.00;0.62;;;;;11.60;1.00;;;;;;2264037;61;1642;-86
2022/03/18 11:39:49;85577.00;0.29;148.67;0.00;0.00;0.62;;;;;11.50;1.00;;;;;;2264137;61;1128;-86
2022/03/18 11:42:21;33226.00;0.11;58.17;0.00;0.00;0.62;;;;;11.60;1.00;;;;;;2263980;61;981;-86
2022/03/18 11:44:53;236173.00;0.79;408.17;0.00;0.00;0.62;;;;;11.70;1.00;;;;;;2264071;61;1306;-87
2022/03/18 11:47:44;1636411.00;5.45;2902.53;70440.00;0.23;122.52;;;;;12.20;1.00;;;;;;2263997;61;1182;-87
2022/03/18 11:50:47;869225.00;2.90;1502.13;40041.00;0.13;69.96;;;;;12.40;1.00;;;;;;2264060;61;1117;-87
2022/03/18 11:53:46;410397.00;1.37;707.68;5863.00;0.02;10.78;;;;;12.20;1.00;;;;;;2264087;61;1484;-86
2022/03/18 11:56:15;463401.00;1.54;798.84;36557.00;0.12;63.93;;;;;12.00;1.00;;;;;;2263957;61;1440;-87
2022/03/18 11:58:42;808225.00;2.69;1395.47;36099.00;0.12;63.14;;;;;12.10;1.00;;;;;;2264092;61;1915;-87
2022/03/18 12:01:42;927157.00;3.09;1603.87;95079.00;0.32;165.08;;;;;12.00;1.00;;;;;;2264033;61;1558;-87
2022/03/18 12:04:10;200169.00;0.67;346.21;0.00;0.00;0.62;;;;;11.90;1.00;;;;;;2264063;61;1066;-87
2022/03/18 12:07:09;398336.00;1.33;686.94;0.00;0.00;0.62;;;;;11.90;1.00;;;;;;2263877;61;1708;-88
2022/03/18 12:09:49;630359.00;2.10;1086.67;51589.00;0.17;89.93;;;;;12.20;1.00;;;;;;2263972;61;1578;-87
2022/03/18 12:12:19;1613078.00;5.38;2857.76;190094.00;0.63;328.87;;;;;12.20;1.00;;;;;;2264064;61;1064;-87
2022/03/18 12:14:46;1300048.00;4.33;2272.19;120361.00;0.40;208.71;;;;;12.20;1.00;;;;;;2263917;61;1718;-87
2022/03/18 12:17:14;1612313.00;5.37;2856.29;228031.00;0.76;394.16;;;;;12.10;1.00;;;;;;2263872;61;1053;-89
2022/03/18 12:19:41;1548905.00;5.16;2735.49;96539.00;0.32;167.60;;;;;12.40;1.00;;;;;;2263827;61;1944;-87
2022/03/18 12:22:09;831227.00;2.77;1435.64;47729.00;0.16;83.26;;;;;12.70;1.00;;;;;;2264115;61;1018;-86
2022/03/18 12:24:39;1278845.00;4.26;2233.44;128128.00;0.43;222.10;;;;;12.60;1.00;;;;;;2263894;61;1364;-87
2022/03/18 12:27:06;1948045.00;6.49;3518.18;181733.00;0.61;314.47;;;;;12.70;1.00;;;;;;2263976;61;1523;-86
2022/03/18 12:29:34;1168875.00;3.90;2034.05;65086.00;0.22;113.27;;;;;13.30;1.00;;;;;;2263996;61;966;-87
2022/03/18 12:32:07;1138230.00;3.79;1978.93;192063.00;0.64;332.26;;;;;13.20;1.00;;;;;;2264708;61;1082;-86
2022/03/18 12:34:35;1101265.00;3.67;1912.69;43514.00;0.15;75.97;;;;;13.10;1.00;;;;;;2264539;61;1318;-87
2022/03/18 12:37:14;960620.00;3.20;1662.85;29802.00;0.10;52.24;;;;;12.80;1.00;;;;;;2264729;61;1029;-86
2022/03/18 12:39:41;1725190.00;5.75;3074.47;108102.00;0.36;187.55;;;;;13.40;1.00;;;;;;2264669;61;1989;-87
2022/03/18 12:42:11;2013008.00;6.71;3651.07;99935.00;0.33;173.46;;;;;13.30;1.00;;;;;;2264590;61;1020;-87